sensor_id;sensor_type;location;lat;lon;timestamp;P1;durP1;ratioP1;P2;durP2;ratioP2
26253;SDS011;53339;51.378;0.094;2023-08-12T00:00:54;4.63;;;1.70;;
26253;SDS011;53339;51.378;0.094;2023-08-12T00:03:29;9.23;;;3.10;;
26253;SDS011;53339;51.378;0.094;2023-08-12T00:06:03;5.13;;;1.95;;
26253;SDS011;53339;51.378;0.094;2023-08-12T00:08:35;5.80;;;3.05;;
26253;SDS011;53339;51.378;0.094;2023-08-12T00:11:07;6.68;;;3.38;;
26253;SDS011;53339;51.378;0.094;2023-08-12T00:13:40;5.97;;;1.80;;
26253;SDS011;53339;51.378;0.094;2023-08-12T00:16:11;5.25;;;1.60;;
26253;SDS011;53339;51.378;0.094;2023-08-12T00:18:40;6.88;;;2.35;;
26253;SDS011;53339;51.378;0.094;2023-08-12T00:21:11;5.25;;;1.70;;
26253;SDS011;53339;51.378;0.094;2023-08-12T00:23:40;5.03;;;2.47;;
26253;SDS011;53339;51.378;0.094;2023-08-12T00:26:08;7.20;;;2.35;;
26253;SDS011;53339;51.378;0.094;2023-08-12T00:28:41;7.57;;;2.03;;
26253;SDS011;53339;51.378;0.094;2023-08-12T00:31:10;5.22;;;1.92;;
26253;SDS011;53339;51.378;0.094;2023-08-12T00:36:12;4.75;;;1.38;;
26253;SDS011;53339;51.378;0.094;2023-08-12T00:38:40;5.30;;;1.55;;
26253;SDS011;53339;51.378;0.094;2023-08-12T00:41:17;7.75;;;1.65;;
26253;SDS011;53339;51.378;0.094;2023-08-12T00:43:52;6.53;;;1.55;;
26253;SDS011;53339;51.378;0.094;2023-08-12T00:46:22;3.95;;;1.40;;
26253;SDS011;53339;51.378;0.094;2023-08-12T00:48:54;4.45;;;1.42;;
26253;SDS011;53339;51.378;0.094;2023-08-12T00:51:27;5.70;;;2.53;;
26253;SDS011;53339;51.378;0.094;2023-08-12T00:53:59;4.35;;;1.50;;
26253;SDS011;53339;51.378;0.094;2023-08-12T00:56:35;5.97;;;1.60;;
26253;SDS011;53339;51.378;0.094;2023-08-12T00:59:05;4.78;;;1.88;;
26253;SDS011;53339;51.378;0.094;2023-08-12T01:01:45;7.43;;;2.67;;
26253;SDS011;53339;51.378;0.094;2023-08-12T01:04:15;9.30;;;1.70;;
26253;SDS011;53339;51.378;0.094;2023-08-12T01:06:45;7.60;;;2.17;;
26253;SDS011;53339;51.378;0.094;2023-08-12T01:09:14;6.57;;;1.80;;
26253;SDS011;53339;51.378;0.094;2023-08-12T01:12:03;6.35;;;1.63;;
26253;SDS011;53339;51.378;0.094;2023-08-12T01:17:45;4.85;;;2.20;;
26253;SDS011;53339;51.378;0.094;2023-08-12T01:20:20;5.43;;;3.20;;
26253;SDS011;53339;51.378;0.094;2023-08-12T01:26:00;5.50;;;1.48;;
26253;SDS011;53339;51.378;0.094;2023-08-12T01:28:38;5.75;;;2.17;;
26253;SDS011;53339;51.378;0.094;2023-08-12T01:31:10;4.50;;;1.50;;
26253;SDS011;53339;51.378;0.094;2023-08-12T01:34:10;2.40;;;1.10;;
26253;SDS011;53339;51.378;0.094;2023-08-12T01:36:41;5.55;;;1.50;;
26253;SDS011;53339;51.378;0.094;2023-08-12T01:39:18;4.95;;;2.00;;
26253;SDS011;53339;51.378;0.094;2023-08-12T01:41:50;5.70;;;2.25;;
26253;SDS011;53339;51.378;0.094;2023-08-12T01:44:24;4.50;;;1.65;;
26253;SDS011;53339;51.378;0.094;2023-08-12T01:49:26;5.90;;;2.08;;
26253;SDS011;53339;51.378;0.094;2023-08-12T01:51:57;4.93;;;2.00;;
26253;SDS011;53339;51.378;0.094;2023-08-12T01:54:36;7.45;;;2.35;;
26253;SDS011;53339;51.378;0.094;2023-08-12T01:57:06;6.95;;;1.70;;
26253;SDS011;53339;51.378;0.094;2023-08-12T01:59:44;5.72;;;1.70;;
26253;SDS011;53339;51.378;0.094;2023-08-12T02:02:12;8.23;;;2.42;;
26253;SDS011;53339;51.378;0.094;2023-08-12T02:04:43;7.30;;;2.58;;
26253;SDS011;53339;51.378;0.094;2023-08-12T02:07:14;4.72;;;1.88;;
26253;SDS011;53339;51.378;0.094;2023-08-12T02:09:43;7.65;;;3.42;;
26253;SDS011;53339;51.378;0.094;2023-08-12T02:12:17;4.70;;;2.33;;
26253;SDS011;53339;51.378;0.094;2023-08-12T02:14:46;6.85;;;2.17;;
26253;SDS011;53339;51.378;0.094;2023-08-12T02:17:15;8.40;;;2.22;;
26253;SDS011;53339;51.378;0.094;2023-08-12T02:19:52;7.18;;;4.03;;
26253;SDS011;53339;51.378;0.094;2023-08-12T02:22:22;6.35;;;2.17;;
26253;SDS011;53339;51.378;0.094;2023-08-12T02:24:52;8.82;;;2.25;;
26253;SDS011;53339;51.378;0.094;2023-08-12T02:27:21;4.78;;;1.63;;
26253;SDS011;53339;51.378;0.094;2023-08-12T02:29:51;7.68;;;3.15;;
26253;SDS011;53339;51.378;0.094;2023-08-12T02:32:21;8.68;;;2.28;;
26253;SDS011;53339;51.378;0.094;2023-08-12T02:34:53;5.05;;;2.72;;
26253;SDS011;53339;51.378;0.094;2023-08-12T02:37:23;7.38;;;2.13;;
26253;SDS011;53339;51.378;0.094;2023-08-12T02:39:54;5.20;;;1.90;;
26253;SDS011;53339;51.378;0.094;2023-08-12T02:42:30;5.18;;;2.38;;
26253;SDS011;53339;51.378;0.094;2023-08-12T02:45:05;8.07;;;4.30;;
26253;SDS011;53339;51.378;0.094;2023-08-12T02:47:33;5.40;;;3.75;;
26253;SDS011;53339;51.378;0.094;2023-08-12T02:50:08;9.43;;;3.60;;
26253;SDS011;53339;51.378;0.094;2023-08-12T02:52:36;5.72;;;2.40;;
26253;SDS011;53339;51.378;0.094;2023-08-12T02:55:08;7.57;;;2.50;;
26253;SDS011;53339;51.378;0.094;2023-08-12T02:57:42;9.35;;;2.63;;
26253;SDS011;53339;51.378;0.094;2023-08-12T03:00:14;7.22;;;2.42;;
26253;SDS011;53339;51.378;0.094;2023-08-12T03:02:43;8.40;;;2.63;;
26253;SDS011;53339;51.378;0.094;2023-08-12T03:05:15;10.15;;;5.00;;
26253;SDS011;53339;51.378;0.094;2023-08-12T03:07:47;7.20;;;2.25;;
26253;SDS011;53339;51.378;0.094;2023-08-12T03:10:15;8.50;;;2.85;;
26253;SDS011;53339;51.378;0.094;2023-08-12T03:12:45;6.93;;;2.50;;
26253;SDS011;53339;51.378;0.094;2023-08-12T03:15:15;7.80;;;2.17;;
26253;SDS011;53339;51.378;0.094;2023-08-12T03:17:43;5.63;;;2.30;;
26253;SDS011;53339;51.378;0.094;2023-08-12T03:20:13;9.02;;;2.63;;
26253;SDS011;53339;51.378;0.094;2023-08-12T03:22:42;8.50;;;2.83;;
26253;SDS011;53339;51.378;0.094;2023-08-12T03:25:22;8.02;;;3.00;;
26253;SDS011;53339;51.378;0.094;2023-08-12T03:27:54;8.02;;;4.40;;
26253;SDS011;53339;51.378;0.094;2023-08-12T03:30:25;7.03;;;2.58;;
26253;SDS011;53339;51.378;0.094;2023-08-12T03:33:01;7.07;;;2.28;;
26253;SDS011;53339;51.378;0.094;2023-08-12T03:35:36;7.10;;;2.72;;
26253;SDS011;53339;51.378;0.094;2023-08-12T03:38:07;9.73;;;2.97;;
26253;SDS011;53339;51.378;0.094;2023-08-12T03:40:40;9.73;;;2.90;;
26253;SDS011;53339;51.378;0.094;2023-08-12T03:43:13;7.32;;;4.85;;
26253;SDS011;53339;51.378;0.094;2023-08-12T03:45:43;10.00;;;3.00;;
26253;SDS011;53339;51.378;0.094;2023-08-12T03:48:15;9.38;;;3.30;;
26253;SDS011;53339;51.378;0.094;2023-08-12T03:50:47;10.48;;;3.67;;
26253;SDS011;53339;51.378;0.094;2023-08-12T03:53:16;11.18;;;3.75;;
26253;SDS011;53339;51.378;0.094;2023-08-12T03:55:59;11.52;;;3.88;;
26253;SDS011;53339;51.378;0.094;2023-08-12T03:58:29;10.82;;;4.55;;
26253;SDS011;53339;51.378;0.094;2023-08-12T04:01:03;11.70;;;4.72;;
26253;SDS011;53339;51.378;0.094;2023-08-12T04:03:33;11.10;;;4.32;;
26253;SDS011;53339;51.378;0.094;2023-08-12T04:06:03;12.13;;;4.80;;
26253;SDS011;53339;51.378;0.094;2023-08-12T04:08:41;14.48;;;4.60;;
26253;SDS011;53339;51.378;0.094;2023-08-12T04:11:12;9.15;;;3.72;;
26253;SDS011;53339;51.378;0.094;2023-08-12T04:13:44;12.82;;;5.50;;
26253;SDS011;53339;51.378;0.094;2023-08-12T04:16:17;14.38;;;7.95;;
26253;SDS011;53339;51.378;0.094;2023-08-12T04:18:48;10.50;;;4.20;;
26253;SDS011;53339;51.378;0.094;2023-08-12T04:21:16;12.45;;;4.60;;
26253;SDS011;53339;51.378;0.094;2023-08-12T04:23:45;13.63;;;5.15;;
26253;SDS011;53339;51.378;0.094;2023-08-12T04:26:14;13.48;;;6.85;;
26253;SDS011;53339;51.378;0.094;2023-08-12T04:28:44;11.80;;;5.45;;
26253;SDS011;53339;51.378;0.094;2023-08-12T04:31:13;13.23;;;4.93;;
26253;SDS011;53339;51.378;0.094;2023-08-12T04:33:46;14.95;;;4.88;;
26253;SDS011;53339;51.378;0.094;2023-08-12T04:36:17;9.13;;;4.38;;
26253;SDS011;53339;51.378;0.094;2023-08-12T04:38:49;21.77;;;5.13;;
26253;SDS011;53339;51.378;0.094;2023-08-12T04:41:21;15.52;;;7.45;;
26253;SDS011;53339;51.378;0.094;2023-08-12T04:43:53;13.02;;;4.78;;
26253;SDS011;53339;51.378;0.094;2023-08-12T04:46:26;13.32;;;4.75;;
26253;SDS011;53339;51.378;0.094;2023-08-12T04:48:54;14.60;;;4.28;;
26253;SDS011;53339;51.378;0.094;2023-08-12T04:51:22;15.38;;;5.88;;
26253;SDS011;53339;51.378;0.094;2023-08-12T04:53:53;12.55;;;4.53;;
26253;SDS011;53339;51.378;0.094;2023-08-12T04:56:24;11.43;;;3.95;;
26253;SDS011;53339;51.378;0.094;2023-08-12T04:58:54;10.77;;;4.35;;
26253;SDS011;53339;51.378;0.094;2023-08-12T05:03:55;12.35;;;3.50;;
26253;SDS011;53339;51.378;0.094;2023-08-12T05:06:23;11.02;;;7.90;;
26253;SDS011;53339;51.378;0.094;2023-08-12T05:08:56;9.60;;;3.22;;
26253;SDS011;53339;51.378;0.094;2023-08-12T05:11:28;12.05;;;4.65;;
26253;SDS011;53339;51.378;0.094;2023-08-12T05:14:00;10.40;;;3.13;;
26253;SDS011;53339;51.378;0.094;2023-08-12T05:16:28;7.30;;;2.78;;
26253;SDS011;53339;51.378;0.094;2023-08-12T05:19:03;11.27;;;2.80;;
26253;SDS011;53339;51.378;0.094;2023-08-12T05:21:31;8.45;;;2.40;;
26253;SDS011;53339;51.378;0.094;2023-08-12T05:24:01;9.93;;;2.92;;
26253;SDS011;53339;51.378;0.094;2023-08-12T05:26:29;9.50;;;2.72;;
26253;SDS011;53339;51.378;0.094;2023-08-12T05:28:57;11.27;;;2.65;;
26253;SDS011;53339;51.378;0.094;2023-08-12T05:31:26;9.27;;;2.38;;
26253;SDS011;53339;51.378;0.094;2023-08-12T05:33:56;13.20;;;2.42;;
26253;SDS011;53339;51.378;0.094;2023-08-12T05:36:24;9.60;;;2.80;;
26253;SDS011;53339;51.378;0.094;2023-08-12T05:38:56;8.75;;;2.55;;
26253;SDS011;53339;51.378;0.094;2023-08-12T05:41:24;8.02;;;1.98;;
26253;SDS011;53339;51.378;0.094;2023-08-12T05:43:56;9.52;;;2.25;;
26253;SDS011;53339;51.378;0.094;2023-08-12T05:46:25;10.50;;;3.38;;
26253;SDS011;53339;51.378;0.094;2023-08-12T05:48:56;7.65;;;1.90;;
26253;SDS011;53339;51.378;0.094;2023-08-12T05:51:27;10.45;;;5.10;;
26253;SDS011;53339;51.378;0.094;2023-08-12T05:54:01;7.63;;;2.28;;
26253;SDS011;53339;51.378;0.094;2023-08-12T05:56:29;10.27;;;2.05;;
26253;SDS011;53339;51.378;0.094;2023-08-12T05:58:57;8.98;;;2.63;;
26253;SDS011;53339;51.378;0.094;2023-08-12T06:01:25;9.20;;;2.80;;
26253;SDS011;53339;51.378;0.094;2023-08-12T06:03:53;6.40;;;2.15;;
26253;SDS011;53339;51.378;0.094;2023-08-12T06:06:24;7.72;;;2.10;;
26253;SDS011;53339;51.378;0.094;2023-08-12T06:08:55;7.85;;;2.00;;
26253;SDS011;53339;51.378;0.094;2023-08-12T06:11:23;7.13;;;4.28;;
26253;SDS011;53339;51.378;0.094;2023-08-12T06:13:52;9.95;;;2.80;;
26253;SDS011;53339;51.378;0.094;2023-08-12T06:16:22;6.85;;;1.85;;
26253;SDS011;53339;51.378;0.094;2023-08-12T06:18:52;13.50;;;2.55;;
26253;SDS011;53339;51.378;0.094;2023-08-12T06:21:20;5.35;;;1.73;;
26253;SDS011;53339;51.378;0.094;2023-08-12T06:23:51;8.55;;;2.13;;
26253;SDS011;53339;51.378;0.094;2023-08-12T06:26:19;15.45;;;2.75;;
26253;SDS011;53339;51.378;0.094;2023-08-12T06:28:52;7.57;;;1.92;;
26253;SDS011;53339;51.378;0.094;2023-08-12T06:31:23;7.93;;;2.20;;
26253;SDS011;53339;51.378;0.094;2023-08-12T06:33:52;14.18;;;2.78;;
26253;SDS011;53339;51.378;0.094;2023-08-12T06:36:22;9.88;;;2.15;;
26253;SDS011;53339;51.378;0.094;2023-08-12T06:38:50;7.93;;;1.95;;
26253;SDS011;53339;51.378;0.094;2023-08-12T06:41:18;12.10;;;2.38;;
26253;SDS011;53339;51.378;0.094;2023-08-12T06:43:49;7.05;;;3.60;;
26253;SDS011;53339;51.378;0.094;2023-08-12T06:46:22;5.68;;;2.45;;
26253;SDS011;53339;51.378;0.094;2023-08-12T06:48:58;11.10;;;2.13;;
26253;SDS011;53339;51.378;0.094;2023-08-12T06:51:26;8.27;;;3.65;;
26253;SDS011;53339;51.378;0.094;2023-08-12T06:53:55;12.50;;;2.40;;
26253;SDS011;53339;51.378;0.094;2023-08-12T06:56:31;8.57;;;2.47;;
26253;SDS011;53339;51.378;0.094;2023-08-12T06:59:08;6.47;;;2.15;;
26253;SDS011;53339;51.378;0.094;2023-08-12T07:01:36;12.43;;;2.80;;
26253;SDS011;53339;51.378;0.094;2023-08-12T07:04:05;5.22;;;1.77;;
26253;SDS011;53339;51.378;0.094;2023-08-12T07:06:34;9.00;;;4.22;;
26253;SDS011;53339;51.378;0.094;2023-08-12T07:09:08;7.18;;;2.45;;
26253;SDS011;53339;51.378;0.094;2023-08-12T07:11:38;10.45;;;2.72;;
26253;SDS011;53339;51.378;0.094;2023-08-12T07:14:06;8.48;;;2.83;;
26253;SDS011;53339;51.378;0.094;2023-08-12T07:16:34;13.15;;;2.33;;
26253;SDS011;53339;51.378;0.094;2023-08-12T07:19:08;12.15;;;2.38;;
26253;SDS011;53339;51.378;0.094;2023-08-12T07:21:39;13.05;;;2.22;;
26253;SDS011;53339;51.378;0.094;2023-08-12T07:24:12;6.28;;;2.13;;
26253;SDS011;53339;51.378;0.094;2023-08-12T07:26:45;9.85;;;2.17;;
26253;SDS011;53339;51.378;0.094;2023-08-12T07:29:20;10.18;;;1.80;;
26253;SDS011;53339;51.378;0.094;2023-08-12T07:31:53;12.93;;;4.03;;
26253;SDS011;53339;51.378;0.094;2023-08-12T07:34:26;7.05;;;1.98;;
26253;SDS011;53339;51.378;0.094;2023-08-12T07:36:57;11.30;;;2.05;;
26253;SDS011;53339;51.378;0.094;2023-08-12T07:39:27;12.13;;;2.28;;
26253;SDS011;53339;51.378;0.094;2023-08-12T07:41:56;9.00;;;2.15;;
26253;SDS011;53339;51.378;0.094;2023-08-12T07:44:28;12.38;;;3.72;;
26253;SDS011;53339;51.378;0.094;2023-08-12T07:46:58;8.13;;;2.05;;
26253;SDS011;53339;51.378;0.094;2023-08-12T07:49:26;10.82;;;2.40;;
26253;SDS011;53339;51.378;0.094;2023-08-12T07:51:54;11.23;;;2.00;;
26253;SDS011;53339;51.378;0.094;2023-08-12T07:54:36;8.95;;;1.70;;
26253;SDS011;53339;51.378;0.094;2023-08-12T07:57:04;6.93;;;1.75;;
26253;SDS011;53339;51.378;0.094;2023-08-12T07:59:40;10.20;;;3.65;;
26253;SDS011;53339;51.378;0.094;2023-08-12T08:02:10;9.93;;;3.17;;
26253;SDS011;53339;51.378;0.094;2023-08-12T08:04:41;10.38;;;1.80;;
26253;SDS011;53339;51.378;0.094;2023-08-12T08:07:18;10.45;;;2.08;;
26253;SDS011;53339;51.378;0.094;2023-08-12T08:09:51;9.73;;;2.25;;
26253;SDS011;53339;51.378;0.094;2023-08-12T08:12:20;11.20;;;2.30;;
26253;SDS011;53339;51.378;0.094;2023-08-12T08:14:52;14.45;;;2.33;;
26253;SDS011;53339;51.378;0.094;2023-08-12T08:17:21;7.00;;;1.70;;
26253;SDS011;53339;51.378;0.094;2023-08-12T08:19:50;6.28;;;1.55;;
26253;SDS011;53339;51.378;0.094;2023-08-12T08:22:19;6.25;;;1.65;;
26253;SDS011;53339;51.378;0.094;2023-08-12T08:24:56;6.80;;;1.58;;
26253;SDS011;53339;51.378;0.094;2023-08-12T08:27:26;8.27;;;1.90;;
26253;SDS011;53339;51.378;0.094;2023-08-12T08:29:55;6.38;;;1.77;;
26253;SDS011;53339;51.378;0.094;2023-08-12T08:32:24;8.93;;;1.60;;
26253;SDS011;53339;51.378;0.094;2023-08-12T08:34:56;7.20;;;1.92;;
26253;SDS011;53339;51.378;0.094;2023-08-12T08:37:25;7.50;;;1.58;;
26253;SDS011;53339;51.378;0.094;2023-08-12T08:39:54;6.53;;;2.03;;
26253;SDS011;53339;51.378;0.094;2023-08-12T08:42:26;7.50;;;1.55;;
26253;SDS011;53339;51.378;0.094;2023-08-12T08:44:56;8.05;;;2.60;;
26253;SDS011;53339;51.378;0.094;2023-08-12T08:47:44;7.25;;;1.63;;
26253;SDS011;53339;51.378;0.094;2023-08-12T08:50:14;6.90;;;1.17;;
26253;SDS011;53339;51.378;0.094;2023-08-12T08:52:47;7.25;;;1.90;;
26253;SDS011;53339;51.378;0.094;2023-08-12T08:55:27;8.30;;;1.25;;
26253;SDS011;53339;51.378;0.094;2023-08-12T08:57:58;10.05;;;1.83;;
26253;SDS011;53339;51.378;0.094;2023-08-12T09:00:29;11.40;;;2.78;;
26253;SDS011;53339;51.378;0.094;2023-08-12T09:02:58;11.35;;;1.58;;
26253;SDS011;53339;51.378;0.094;2023-08-12T09:05:30;9.57;;;1.88;;
26253;SDS011;53339;51.378;0.094;2023-08-12T09:08:15;5.38;;;1.40;;
26253;SDS011;53339;51.378;0.094;2023-08-12T09:10:47;4.78;;;1.13;;
26253;SDS011;53339;51.378;0.094;2023-08-12T09:13:23;6.63;;;1.40;;
26253;SDS011;53339;51.378;0.094;2023-08-12T09:15:56;7.30;;;1.70;;
26253;SDS011;53339;51.378;0.094;2023-08-12T09:18:29;7.15;;;1.45;;
26253;SDS011;53339;51.378;0.094;2023-08-12T09:21:03;9.63;;;2.20;;
26253;SDS011;53339;51.378;0.094;2023-08-12T09:23:34;5.38;;;1.02;;
26253;SDS011;53339;51.378;0.094;2023-08-12T09:26:14;7.07;;;2.22;;
26253;SDS011;53339;51.378;0.094;2023-08-12T09:28:45;6.10;;;2.25;;
26253;SDS011;53339;51.378;0.094;2023-08-12T09:31:23;8.05;;;2.90;;
26253;SDS011;53339;51.378;0.094;2023-08-12T09:33:57;8.70;;;1.55;;
26253;SDS011;53339;51.378;0.094;2023-08-12T09:36:36;5.03;;;3.33;;
26253;SDS011;53339;51.378;0.094;2023-08-12T09:39:07;6.65;;;1.55;;
26253;SDS011;53339;51.378;0.094;2023-08-12T09:41:41;5.72;;;1.10;;
26253;SDS011;53339;51.378;0.094;2023-08-12T09:44:15;10.23;;;2.05;;
26253;SDS011;53339;51.378;0.094;2023-08-12T09:46:44;6.80;;;1.52;;
26253;SDS011;53339;51.378;0.094;2023-08-12T09:49:20;5.45;;;1.30;;
26253;SDS011;53339;51.378;0.094;2023-08-12T09:51:56;6.15;;;1.60;;
26253;SDS011;53339;51.378;0.094;2023-08-12T09:54:30;7.32;;;1.40;;
26253;SDS011;53339;51.378;0.094;2023-08-12T09:57:03;8.90;;;1.85;;
26253;SDS011;53339;51.378;0.094;2023-08-12T09:59:37;4.20;;;0.88;;
26253;SDS011;53339;51.378;0.094;2023-08-12T10:02:14;11.25;;;1.83;;
26253;SDS011;53339;51.378;0.094;2023-08-12T10:04:50;8.18;;;1.23;;
26253;SDS011;53339;51.378;0.094;2023-08-12T10:07:28;9.13;;;1.30;;
26253;SDS011;53339;51.378;0.094;2023-08-12T10:10:01;7.53;;;1.40;;
26253;SDS011;53339;51.378;0.094;2023-08-12T10:12:41;8.30;;;1.30;;
26253;SDS011;53339;51.378;0.094;2023-08-12T10:15:14;6.00;;;1.40;;
26253;SDS011;53339;51.378;0.094;2023-08-12T10:17:46;6.13;;;1.35;;
26253;SDS011;53339;51.378;0.094;2023-08-12T10:20:21;10.63;;;4.45;;
26253;SDS011;53339;51.378;0.094;2023-08-12T10:23:09;8.02;;;1.67;;
26253;SDS011;53339;51.378;0.094;2023-08-12T10:25:43;7.30;;;1.05;;
26253;SDS011;53339;51.378;0.094;2023-08-12T10:28:12;11.57;;;1.88;;
26253;SDS011;53339;51.378;0.094;2023-08-12T10:30:53;4.07;;;1.13;;
26253;SDS011;53339;51.378;0.094;2023-08-12T10:33:28;5.63;;;1.30;;
26253;SDS011;53339;51.378;0.094;2023-08-12T10:36:06;8.98;;;2.03;;
26253;SDS011;53339;51.378;0.094;2023-08-12T10:38:38;7.00;;;1.27;;
26253;SDS011;53339;51.378;0.094;2023-08-12T10:41:17;7.40;;;1.25;;
26253;SDS011;53339;51.378;0.094;2023-08-12T10:44:01;8.80;;;2.53;;
26253;SDS011;53339;51.378;0.094;2023-08-12T10:46:45;6.72;;;1.10;;
26253;SDS011;53339;51.378;0.094;2023-08-12T10:49:25;9.52;;;1.55;;
26253;SDS011;53339;51.378;0.094;2023-08-12T10:51:55;7.05;;;1.00;;
26253;SDS011;53339;51.378;0.094;2023-08-12T10:54:24;8.25;;;1.35;;
26253;SDS011;53339;51.378;0.094;2023-08-12T10:57:07;5.70;;;1.30;;
26253;SDS011;53339;51.378;0.094;2023-08-12T11:04:56;8.52;;;1.77;;
26253;SDS011;53339;51.378;0.094;2023-08-12T11:10:22;6.03;;;1.15;;
26253;SDS011;53339;51.378;0.094;2023-08-12T11:12:55;6.43;;;1.30;;
26253;SDS011;53339;51.378;0.094;2023-08-12T11:15:47;8.73;;;1.83;;
26253;SDS011;53339;51.378;0.094;2023-08-12T11:18:26;5.82;;;1.45;;
26253;SDS011;53339;51.378;0.094;2023-08-12T11:20:57;7.90;;;1.80;;
26253;SDS011;53339;51.378;0.094;2023-08-12T11:23:35;7.70;;;1.50;;
26253;SDS011;53339;51.378;0.094;2023-08-12T11:26:08;5.85;;;1.95;;
26253;SDS011;53339;51.378;0.094;2023-08-12T11:28:40;10.73;;;3.28;;
26253;SDS011;53339;51.378;0.094;2023-08-12T11:31:11;5.43;;;1.48;;
26253;SDS011;53339;51.378;0.094;2023-08-12T11:33:47;9.00;;;1.65;;
26253;SDS011;53339;51.378;0.094;2023-08-12T11:36:16;6.22;;;2.20;;
26253;SDS011;53339;51.378;0.094;2023-08-12T11:38:45;9.10;;;1.33;;
26253;SDS011;53339;51.378;0.094;2023-08-12T11:41:16;7.38;;;2.08;;
26253;SDS011;53339;51.378;0.094;2023-08-12T11:43:45;6.38;;;1.17;;
26253;SDS011;53339;51.378;0.094;2023-08-12T11:46:16;6.05;;;1.70;;
26253;SDS011;53339;51.378;0.094;2023-08-12T11:48:44;9.18;;;1.90;;
26253;SDS011;53339;51.378;0.094;2023-08-12T11:51:16;7.95;;;1.70;;
26253;SDS011;53339;51.378;0.094;2023-08-12T11:53:54;4.18;;;1.08;;
26253;SDS011;53339;51.378;0.094;2023-08-12T11:56:22;8.10;;;1.02;;
26253;SDS011;53339;51.378;0.094;2023-08-12T11:58:58;4.30;;;1.00;;
26253;SDS011;53339;51.378;0.094;2023-08-12T12:01:35;5.13;;;1.05;;
26253;SDS011;53339;51.378;0.094;2023-08-12T12:06:42;4.78;;;1.13;;
26253;SDS011;53339;51.378;0.094;2023-08-12T12:09:12;7.65;;;1.08;;
26253;SDS011;53339;51.378;0.094;2023-08-12T12:11:41;3.22;;;1.25;;
26253;SDS011;53339;51.378;0.094;2023-08-12T12:14:13;5.88;;;1.27;;
26253;SDS011;53339;51.378;0.094;2023-08-12T12:16:45;5.57;;;1.13;;
26253;SDS011;53339;51.378;0.094;2023-08-12T12:19:21;5.30;;;0.98;;
26253;SDS011;53339;51.378;0.094;2023-08-12T12:22:10;4.30;;;1.42;;
26253;SDS011;53339;51.378;0.094;2023-08-12T12:24:45;3.95;;;0.93;;
26253;SDS011;53339;51.378;0.094;2023-08-12T12:27:16;7.75;;;1.23;;
26253;SDS011;53339;51.378;0.094;2023-08-12T12:29:51;5.35;;;2.28;;
26253;SDS011;53339;51.378;0.094;2023-08-12T12:32:32;6.75;;;1.23;;
26253;SDS011;53339;51.378;0.094;2023-08-12T12:35:02;5.10;;;0.98;;
26253;SDS011;53339;51.378;0.094;2023-08-12T12:40:06;7.55;;;1.10;;
26253;SDS011;53339;51.378;0.094;2023-08-12T12:42:44;7.90;;;1.20;;
26253;SDS011;53339;51.378;0.094;2023-08-12T12:45:23;6.13;;;1.60;;
26253;SDS011;53339;51.378;0.094;2023-08-12T12:47:56;4.13;;;1.00;;
26253;SDS011;53339;51.378;0.094;2023-08-12T12:50:29;6.47;;;1.85;;
26253;SDS011;53339;51.378;0.094;2023-08-12T12:53:01;2.88;;;1.00;;
26253;SDS011;53339;51.378;0.094;2023-08-12T12:55:45;4.82;;;1.08;;
26253;SDS011;53339;51.378;0.094;2023-08-12T12:58:15;5.57;;;0.93;;
26253;SDS011;53339;51.378;0.094;2023-08-12T13:00:51;3.40;;;1.02;;
26253;SDS011;53339;51.378;0.094;2023-08-12T13:03:19;4.32;;;0.80;;
26253;SDS011;53339;51.378;0.094;2023-08-12T13:06:05;4.20;;;1.20;;
26253;SDS011;53339;51.378;0.094;2023-08-12T13:08:36;3.40;;;0.93;;
26253;SDS011;53339;51.378;0.094;2023-08-12T13:11:14;4.35;;;1.25;;
26253;SDS011;53339;51.378;0.094;2023-08-12T13:13:43;4.32;;;0.93;;
26253;SDS011;53339;51.378;0.094;2023-08-12T13:16:15;4.40;;;0.88;;
26253;SDS011;53339;51.378;0.094;2023-08-12T13:18:50;6.22;;;1.05;;
26253;SDS011;53339;51.378;0.094;2023-08-12T13:21:24;3.22;;;0.95;;
26253;SDS011;53339;51.378;0.094;2023-08-12T13:26:24;4.20;;;1.15;;
26253;SDS011;53339;51.378;0.094;2023-08-12T13:28:53;4.55;;;1.05;;
26253;SDS011;53339;51.378;0.094;2023-08-12T13:31:26;4.88;;;1.10;;
26253;SDS011;53339;51.378;0.094;2023-08-12T13:33:55;5.60;;;1.05;;
26253;SDS011;53339;51.378;0.094;2023-08-12T13:36:29;7.00;;;1.20;;
26253;SDS011;53339;51.378;0.094;2023-08-12T13:39:08;7.85;;;1.52;;
26253;SDS011;53339;51.378;0.094;2023-08-12T13:41:43;5.25;;;0.90;;
26253;SDS011;53339;51.378;0.094;2023-08-12T13:44:15;5.50;;;1.42;;
26253;SDS011;53339;51.378;0.094;2023-08-12T13:47:01;8.70;;;1.65;;
26253;SDS011;53339;51.378;0.094;2023-08-12T13:49:36;7.13;;;1.30;;
26253;SDS011;53339;51.378;0.094;2023-08-12T13:52:08;5.95;;;2.97;;
26253;SDS011;53339;51.378;0.094;2023-08-12T13:54:40;5.57;;;1.25;;
26253;SDS011;53339;51.378;0.094;2023-08-12T13:57:10;5.88;;;1.27;;
26253;SDS011;53339;51.378;0.094;2023-08-12T13:59:45;4.15;;;1.55;;
26253;SDS011;53339;51.378;0.094;2023-08-12T14:02:20;4.45;;;0.95;;
26253;SDS011;53339;51.378;0.094;2023-08-12T14:04:49;8.73;;;2.45;;
26253;SDS011;53339;51.378;0.094;2023-08-12T14:07:36;4.72;;;1.00;;
26253;SDS011;53339;51.378;0.094;2023-08-12T14:10:05;5.13;;;1.40;;
26253;SDS011;53339;51.378;0.094;2023-08-12T14:12:33;4.03;;;0.95;;
26253;SDS011;53339;51.378;0.094;2023-08-12T14:15:02;9.48;;;2.28;;
26253;SDS011;53339;51.378;0.094;2023-08-12T14:17:33;5.88;;;2.67;;
26253;SDS011;53339;51.378;0.094;2023-08-12T14:20:05;5.28;;;0.93;;
26253;SDS011;53339;51.378;0.094;2023-08-12T14:22:35;8.75;;;1.35;;
26253;SDS011;53339;51.378;0.094;2023-08-12T14:25:07;6.32;;;2.92;;
26253;SDS011;53339;51.378;0.094;2023-08-12T14:27:37;7.82;;;1.70;;
26253;SDS011;53339;51.378;0.094;2023-08-12T14:30:19;7.53;;;1.17;;
26253;SDS011;53339;51.378;0.094;2023-08-12T14:32:55;7.07;;;1.40;;
26253;SDS011;53339;51.378;0.094;2023-08-12T14:35:25;8.40;;;1.40;;
26253;SDS011;53339;51.378;0.094;2023-08-12T14:37:56;6.70;;;1.40;;
26253;SDS011;53339;51.378;0.094;2023-08-12T14:40:25;10.65;;;1.60;;
26253;SDS011;53339;51.378;0.094;2023-08-12T14:42:56;5.85;;;1.65;;
26253;SDS011;53339;51.378;0.094;2023-08-12T14:45:24;6.07;;;1.40;;
26253;SDS011;53339;51.378;0.094;2023-08-12T14:47:52;8.55;;;1.73;;
26253;SDS011;53339;51.378;0.094;2023-08-12T14:50:21;5.15;;;1.33;;
26253;SDS011;53339;51.378;0.094;2023-08-12T14:52:50;10.43;;;1.48;;
26253;SDS011;53339;51.378;0.094;2023-08-12T14:55:20;5.13;;;1.50;;
26253;SDS011;53339;51.378;0.094;2023-08-12T14:57:50;5.65;;;1.33;;
26253;SDS011;53339;51.378;0.094;2023-08-12T15:00:24;5.63;;;1.83;;
26253;SDS011;53339;51.378;0.094;2023-08-12T15:02:56;4.70;;;1.70;;
26253;SDS011;53339;51.378;0.094;2023-08-12T15:05:33;6.55;;;1.40;;
26253;SDS011;53339;51.378;0.094;2023-08-12T15:08:11;4.80;;;1.23;;
26253;SDS011;53339;51.378;0.094;2023-08-12T15:10:40;10.93;;;2.65;;
26253;SDS011;53339;51.378;0.094;2023-08-12T15:13:10;7.55;;;1.40;;
26253;SDS011;53339;51.378;0.094;2023-08-12T15:15:45;6.88;;;1.65;;
26253;SDS011;53339;51.378;0.094;2023-08-12T15:18:15;5.30;;;1.40;;
26253;SDS011;53339;51.378;0.094;2023-08-12T15:20:44;7.38;;;1.45;;
26253;SDS011;53339;51.378;0.094;2023-08-12T15:23:16;7.35;;;1.40;;
26253;SDS011;53339;51.378;0.094;2023-08-12T15:25:49;8.75;;;1.10;;
26253;SDS011;53339;51.378;0.094;2023-08-12T15:28:20;3.88;;;1.02;;
26253;SDS011;53339;51.378;0.094;2023-08-12T15:31:04;6.97;;;1.55;;
26253;SDS011;53339;51.378;0.094;2023-08-12T15:33:38;8.73;;;1.48;;
26253;SDS011;53339;51.378;0.094;2023-08-12T15:36:07;11.02;;;1.67;;
26253;SDS011;53339;51.378;0.094;2023-08-12T15:38:35;11.23;;;1.85;;
26253;SDS011;53339;51.378;0.094;2023-08-12T15:41:13;7.80;;;1.63;;
26253;SDS011;53339;51.378;0.094;2023-08-12T15:43:47;10.35;;;1.63;;
26253;SDS011;53339;51.378;0.094;2023-08-12T15:46:16;7.40;;;1.88;;